Home > Products > Valid Products > TAF

000
FTUS44 KBRO 200500
TAFHRL
TAF
KHRL 200521Z 2006/2106 15007KT P6SM FEW020
     FM201400 15017G24KT P6SM SCT040=



000
FTUS44 KBRO 200500
TAFMFE
TAF
KMFE 200521Z 2006/2106 15007KT P6SM FEW020
     FM201400 15017G24KT P6SM SCT030=



000
FTUS44 KBRO 200500
TAFBRO
TAF
KBRO 200521Z 2006/2106 15007KT P6SM FEW020
     FM201400 15017G24KT P6SM SCT040=



000
FTUS44 KBRO 192300
TAFBRO
TAF
KBRO 192335Z 2000/2024 15015G25KT P6SM FEW040
     FM200200 15010KT P6SM SKC
     FM200500 15007KT P6SM FEW020
     FM201400 15015G20KT P6SM SCT030
     FM201600 15020G30KT P6SM SCT050=



000
FTUS44 KBRO 192300
TAFHRL
TAF
KHRL 192335Z 2000/2024 14020G30KT P6SM FEW040
     FM200200 14012KT P6SM SKC
     FM200500 15007KT P6SM FEW020
     FM201400 15015G20KT P6SM SCT030
     FM201600 15020G30KT P6SM SCT050=



000
FTUS44 KBRO 192300
TAFMFE
TAF
KMFE 192335Z 2000/2024 15018G25KT P6SM FEW040
     FM200200 14013KT P6SM SKC
     FM200500 15007KT P6SM FEW020
     FM201400 15015G20KT P6SM SCT030
     FM201600 15020G30KT P6SM SCT050=



000
FTUS44 KBRO 191700
TAFHRL
TAF
KHRL 191735Z 1918/2018 17020G26KT P6SM SCT040 SCT080
      TEMPO 1921/1923 3SM TSRA BR BKN025CB
     FM200400 16008KT P6SM SCT250
     FM201400 15015G20KT P6SM FEW040=



000
FTUS44 KBRO 191700
TAFMFE
TAF
KMFE 191735Z 1918/2018 15019G28KT P6SM SCT040 SCT080
      TEMPO 1921/1923 3SM TSRA BR BKN025CB
     FM200200 14010KT P6SM SCT250
     FM201500 15015G22KT P6SM FEW040=



000
FTUS44 KBRO 191700
TAFBRO
TAF
KBRO 191735Z 1918/2018 16018G26KT P6SM SCT040 SCT080
     FM192100 16020G26KT P6SM VCSH BKN040
      TEMPO 1921/1923 3SM TSRA BR BKN025CB
     FM200200 15010KT P6SM SCT250
     FM200500 16006KT P6SM SKC=



000
FTUS44 KBRO 191100
TAFMFE
TAF
KMFE 191131Z 1912/2012 14011KT P6SM SKC
     FM191400 15017G24KT P6SM SCT040
     FM191700 14019G28KT P6SM SCT040
      TEMPO 1917/1921 3SM TSRA BR BKN025CB
     FM200200 14010KT P6SM SCT250=



000
FTUS44 KBRO 191100
TAFHRL
TAF
KHRL 191131Z 1912/2012 16008KT P6SM SKC
     FM191400 17018G26KT P6SM SCT040
     FM191700 16018G26KT P6SM BKN040
      TEMPO 1917/1921 3SM TSRA BR BKN025CB
     FM200200 16010KT P6SM SCT250=



000
FTUS44 KBRO 191100
TAFBRO
TAF
KBRO 191131Z 1912/2012 15007KT P6SM SKC
     FM191400 16018G26KT P6SM SCT040
     FM191700 16018G26KT P6SM VCSH BKN040
      TEMPO 1917/1921 3SM TSRA BR BKN025CB
     FM200200 16010KT P6SM SCT250=



000
FTUS44 KBRO 190500
TAFMFE
TAF
KMFE 190528Z 1906/2006 14011KT P6SM SKC
     FM191400 15017G24KT P6SM SCT040
     FM191700 14019G28KT P6SM SCT040
      TEMPO 1917/1921 3SM TSRA BR BKN025CB
     FM200200 14010KT P6SM SCT250=



000
FTUS44 KBRO 190500
TAFBRO
TAF
KBRO 190528Z 1906/2006 15007KT P6SM SKC
     FM191400 16018G26KT P6SM SCT040
     FM191700 16018G26KT P6SM VCSH BKN040
      TEMPO 1917/1921 3SM TSRA BR BKN025CB
     FM200200 16010KT P6SM SCT250=



000
FTUS44 KBRO 190500
TAFHRL
TAF
KHRL 190528Z 1906/2006 16008KT P6SM SKC
     FM191400 17018G26KT P6SM SCT040
     FM191700 16018G26KT P6SM BKN040
      TEMPO 1917/1921 3SM TSRA BR BKN025CB
     FM200200 16010KT P6SM SCT250=



000
FTUS44 KBRO 190300 AAA
TAFMFE
TAF AMD
KMFE 190332Z 1904/1924 14011KT P6SM SKC
     FM191500 15017KT P6SM OVC050
     FM191800 14020KT P6SM FEW250 PROB30 1918/1922 P6SM TS BKN050CB
     FM192200 14012KT P6SM SCT250=



000
FTUS44 KBRO 190300 AAA
TAFHRL
TAF AMD
KHRL 190301Z 1903/1924 16008KT P6SM SKC
     FM191500 17018KT P6SM BKN050
     FM191800 16015KT P6SM FEW250 PROB30 1918/1922 P6SM TS BKN050CB
     FM192200 15020KT P6SM FEW250=



000
FTUS44 KBRO 182300
TAFBRO
TAF
KBRO 182320Z 1900/1924 17024G33KT P6SM VCSH SKC
     FM190200 15012KT P6SM SKC
     FM190800 16011G17KT P6SM SKC=



000
FTUS44 KBRO 182300
TAFMFE
TAF
KMFE 182320Z 1900/1924 15019G25KT P6SM SKC
     FM190400 15013KT P6SM SKC
     FM190800 15013G19KT P6SM SKC=



000
FTUS44 KBRO 182300
TAFHRL
TAF
KHRL 182320Z 1900/1924 15025G31KT P6SM VCSH SKC
     FM190200 16012G18KT P6SM SKC
     FM190900 17013KT P6SM SKC=



000
FTUS44 KBRO 182000 AAC
TAFHRL
TAF AMD
KHRL 182051Z 1821/1918 18017G25KT P6SM VCSH SCT040 BKN250
     FM190200 15012G18KT P6SM SKC
     FM190900 15009KT P6SM SKC=



000
FTUS44 KBRO 182000 AAC
TAFBRO
TAF AMD
KBRO 182051Z 1821/1918 18018G25KT P6SM VCSH SCT035 BKN250
     FM190200 14012G18KT P6SM SKC
     FM190800 15009KT P6SM SKC=



000
FTUS44 KBRO 181800 AAB
TAFHRL
TAF AMD
KHRL 181858Z 1819/1918 17018G26KT P6SM SCT040
      TEMPO 1819/1822 18025G40KT -TSRA BKN035CB
     FM190300 15012G18KT P6SM SKC
     FM190900 15009KT P6SM SKC=



000
FTUS44 KBRO 181800 AAB
TAFBRO
TAF AMD
KBRO 181857Z 1819/1918 18020G30KT P6SM SCT035
      TEMPO 1819/1822 18020G45KT -TSRA BKN035CB
     FM190200 14012G18KT P6SM SKC
     FM190800 15009KT P6SM SKC=



000
FTUS44 KBRO 181800 AAA
TAFHRL
TAF AMD
KHRL 181850Z 1819/1918 17018G26KT P6SM SCT040
      TEMPO 1819/1822 18020G35KT -TSRA BKN035CB
     FM190300 15012G18KT P6SM SKC
     FM190900 15009KT P6SM SKC=



000
FTUS44 KBRO 181800 AAA
TAFBRO
TAF AMD
KBRO 181849Z 1819/1918 17016G25KT P6SM SCT035
      TEMPO 1819/1822 18020G35KT -TSRA BKN035CB
     FM190200 14012G18KT P6SM SKC
     FM190800 15009KT P6SM SKC=



000
FTUS44 KBRO 181700
TAFHRL
TAF
KHRL 181738Z 1818/1918 17018G26KT P6SM SCT040
      TEMPO 1818/1822 -TSRA BKN035CB
     FM190300 15012G18KT P6SM SKC
     FM190900 15009KT P6SM SKC=



000
FTUS44 KBRO 181700
TAFMFE
TAF
KMFE 181738Z 1818/1918 15018G25KT P6SM SCT040
     FM190400 15014G20KT P6SM SKC
     FM190800 15010KT P6SM SKC=



000
FTUS44 KBRO 181700
TAFBRO
TAF
KBRO 181738Z 1818/1918 17016G25KT P6SM SCT035
      TEMPO 1818/1822 -TSRA BKN035CB
     FM190200 14012G18KT P6SM SKC
     FM190800 15009KT P6SM SKC=



000
FTUS44 KBRO 181100
TAFHRL
TAF
KHRL 181125Z 1812/1912 15008KT P6SM FEW015
     FM181400 16018G26KT P6SM SCT035
     FM190300 15012G18KT P6SM SKC
     FM190900 15009KT P6SM SKC=



000
FTUS44 KBRO 181100
TAFMFE
TAF
KMFE 181125Z 1812/1912 15010KT P6SM FEW015
     FM181400 15018G26KT P6SM SCT035
     FM190400 15014G20KT P6SM SKC
     FM190800 15010KT P6SM SKC=



000
FTUS44 KBRO 181100
TAFBRO
TAF
KBRO 181125Z 1812/1912 15008KT P6SM FEW015
     FM181400 16018G26KT P6SM SCT035
     FM190200 14012G18KT P6SM SKC
     FM190800 15009KT P6SM SKC=



000
FTUS44 KBRO 180500
TAFMFE
TAF
KMFE 180532Z 1806/1906 14015G22KT P6SM FEW020
     FM180800 15010KT P6SM FEW015
     FM181400 15018G26KT P6SM SCT035=



000
FTUS44 KBRO 180500
TAFHRL
TAF
KHRL 180532Z 1806/1906 15015KT P6SM FEW020
     FM180800 15008KT P6SM FEW015
     FM181400 16018G26KT P6SM SCT035=



000
FTUS44 KBRO 180500
TAFBRO
TAF
KBRO 180532Z 1806/1906 15013KT P6SM FEW020
     FM180800 15008KT P6SM FEW015
     FM181400 16018G26KT P6SM SCT035=



000
FTUS44 KBRO 172300
TAFMFE
TAF
KMFE 172340Z 1800/1824 13019G26KT P6SM SKC
     FM180200 14015G22KT P6SM FEW020
     FM180800 15010KT P6SM FEW015
     FM181400 16016KT P6SM SCT025
     FM181600 15021G28KT P6SM SCT035=



000
FTUS44 KBRO 172300
TAFBRO
TAF
KBRO 172340Z 1800/1824 15017G25KT P6SM FEW030
     FM180300 15013KT P6SM FEW020
     FM180800 15008KT P6SM FEW015
     FM181400 16016KT P6SM SCT025
     FM181700 16018G28KT P6SM SCT035=



000
FTUS44 KBRO 172300
TAFHRL
TAF
KHRL 172340Z 1800/1824 16016G26KT P6SM FEW030
     FM180100 15015KT P6SM FEW020
     FM180800 15008KT P6SM FEW015
     FM181400 16016KT P6SM SCT025
     FM181600 16022G28KT P6SM SCT035=



000
FTUS44 KBRO 171700
TAFBRO
TAF
KBRO 171721Z 1718/1818 15022G29KT P6SM SCT035
     FM180100 15013KT P6SM FEW020
     FM180800 15008KT P6SM FEW015
     FM181700 16018G28KT P6SM SCT035=



000
FTUS44 KBRO 171700
TAFHRL
TAF
KHRL 171721Z 1718/1818 16023G29KT P6SM SCT035
     FM180100 15015KT P6SM FEW020
     FM180800 15008KT P6SM FEW015
     FM181500 16022G28KT P6SM SCT035=



000
FTUS44 KBRO 171700
TAFMFE
TAF
KMFE 171721Z 1718/1818 15022G29KT P6SM FEW015
     FM180200 14015G22KT P6SM FEW020
     FM180800 15010KT P6SM FEW015
     FM181600 15021G28KT P6SM SCT035=



000
FTUS44 KBRO 171100
TAFHRL
TAF
KHRL 171122Z 1712/1812 16013KT P6SM FEW015
     FM171400 16020G28KT P6SM SCT040
     FM180200 15015KT P6SM FEW020
     FM180800 15008KT P6SM FEW015=



000
FTUS44 KBRO 171100
TAFMFE
TAF
KMFE 171122Z 1712/1812 15015G20KT P6SM FEW015
     FM171400 16020G28KT P6SM SCT040
     FM180300 14015G22KT P6SM FEW020
     FM180800 15010KT P6SM FEW015=



000
FTUS44 KBRO 171100
TAFBRO
TAF
KBRO 171122Z 1712/1812 15012KT P6SM FEW015
     FM171400 16018G24KT P6SM SCT040
     FM180200 15013KT P6SM FEW020
     FM180800 15008KT P6SM FEW015=



    US Dept of Commerce
    National Oceanic and Atmospheric Administration
    National Weather Service
    1325 East West Highway
    Silver Spring, MD 20910
    Page Author: NWS Internet Services Team
Disclaimer
Information Quality
Credits
Glossary
Privacy Policy
Freedom of Information Act (FOIA)
About Us
Career Opportunities